Sunday, August 19, 2018, 5:52 PM GMT
Back to Local

CWVQ, Ste Anne De Bell 1

Location: , , Canada Lat: 45.433
Local Time: 5:52 PM GMT (17:52 GMT) Lon: -73.933
Time Zone: GMT Elev: 127 ft

Show me the last for .
Show Coded

Time T Td Feel RH Dir Speed Gust Alt SLP Vis Weather Sky Remarks
2018-08-19 17:00 78 56 79 47 90° 6 - - 30.07 0 None
2018-08-19 16:00 77 61 79 57 90° 3 - - 30.08 0 None
2018-08-19 15:00 75 60 78 60 130° 3 - - 30.08 0 None
2018-08-19 14:00 72 61 76 67 100° 2 - - 30.07 0 None
2018-08-19 13:00 68 61 - 78 30° 3 - - 30.06 0 None
2018-08-19 12:00 65 60 - 85 30° 6 - - 30.06 0 None
2018-08-19 11:00 60 59 - 96 360° 5 - - 30.04 0 None
2018-08-19 10:00 58 57 - 95 360° 3 - - 30.03 0 None
2018-08-19 09:00 59 57 - 93 10° 3 - - 30.00 0 None
2018-08-19 08:00 58 57 - 96 350° 5 - - 29.99 0 None
2018-08-19 07:00 59 56 - 90 350° 5 - - 29.98 0 None
2018-08-19 06:00 58 60 - 105 - Calm - - 29.98 0 None
2018-08-19 05:00 60 59 - 98 330° 2 - - 29.98 0 None
2018-08-19 04:00 60 59 - 96 320° 3 - - 29.96 0 None
2018-08-19 03:00 61 59 - 94 310° 1 - - 29.97 0 None
2018-08-19 02:00 63 60 - 91 - Calm - - 29.96 0 None
2018-08-19 01:00 64 60 - 88 - Calm - - 29.96 0 None
2018-08-19 00:00 68 62 - 82 300° 1 - - 29.93 0 None
2018-08-18 23:00 75 58 78 56 60° 5 - - 29.92 0 None
2018-08-18 22:00 77 57 79 50 50° 6 - - 29.91 0 None
2018-08-18 21:00 78 58 79 50 40° 7 - - 29.90 0 None
2018-08-18 20:00 77 57 78 51 10° 8 - - 29.90 0 None
2018-08-18 19:00 76 59 78 56 30° 7 - - 29.90 0 None
2018-08-18 18:00 74 58 77 58 360° 8 - - 29.91 0 None

Support USWX by starting your Amazon purchase here.